Time;durP1;ratioP1;P1;durP2;ratioP2;P2;SDS_P1;SDS_P2;PMS_P1;PMS_P2;Temp;Humidity;BMP_temperature;BMP_pressure;BME280_temperature;BME280_humidity;BME280_pressure;Samples;Min_cycle;Max_cycle;Signal;HPM_P1;HPM_P2
2021/10/18 00:01:28;;;;;;;14.70;9.57;;;10.60;99.90;;;;;;5117942;28;21017;-70
2021/10/18 00:03:55;;;;;;;15.90;10.27;;;10.60;99.90;;;;;;5117789;28;20809;-70
2021/10/18 00:06:23;;;;;;;16.60;10.30;;;10.60;99.90;;;;;;5117647;28;20481;-70
2021/10/18 00:08:50;;;;;;;14.27;9.60;;;10.60;99.90;;;;;;5117605;28;20497;-70
2021/10/18 00:11:18;;;;;;;15.77;9.47;;;10.60;99.90;;;;;;5117491;28;20497;-70
2021/10/18 00:13:46;;;;;;;12.60;9.00;;;10.60;99.90;;;;;;5117127;28;20971;-70
2021/10/18 00:16:18;;;;;;;16.17;10.37;;;10.70;99.90;;;;;;5117970;28;20812;-70
2021/10/18 00:18:45;;;;;;;18.80;9.97;;;10.70;99.90;;;;;;5117265;28;20447;-70
2021/10/18 00:21:12;;;;;;;11.23;9.20;;;10.70;99.90;;;;;;5117702;28;20458;-70
2021/10/18 00:23:38;;;;;;;11.87;8.97;;;10.70;99.90;;;;;;5117898;28;20459;-70
2021/10/18 00:26:05;;;;;;;12.13;7.83;;;10.70;99.90;;;;;;5117298;28;20468;-70
2021/10/18 00:28:32;;;;;;;10.30;8.50;;;10.70;99.90;;;;;;5117436;28;20519;-70
2021/10/18 00:31:03;;;;;;;12.50;8.77;;;10.70;99.90;;;;;;5117149;27;20462;-70
2021/10/18 00:33:30;;;;;;;14.40;9.00;;;10.60;99.90;;;;;;5117336;28;20453;-70
2021/10/18 00:35:56;;;;;;;10.67;7.93;;;10.60;99.90;;;;;;5117105;28;20470;-69
2021/10/18 00:38:23;;;;;;;12.30;7.30;;;10.70;99.90;;;;;;5117198;28;20450;-69
2021/10/18 00:40:50;;;;;;;12.13;8.13;;;10.70;99.90;;;;;;5116905;28;20466;-70
2021/10/18 00:43:17;;;;;;;12.03;7.40;;;10.70;99.90;;;;;;5116897;28;20466;-71
2021/10/18 00:45:43;;;;;;;14.13;9.70;;;10.70;99.90;;;;;;5117077;28;20782;-70
2021/10/18 00:48:11;;;;;;;11.80;8.30;;;10.70;99.90;;;;;;5116831;28;20473;-70
2021/10/18 00:50:38;;;;;;;9.77;7.90;;;10.70;99.90;;;;;;5116909;27;20450;-70
2021/10/18 00:53:05;;;;;;;13.20;8.80;;;10.60;99.90;;;;;;5116807;28;20459;-70
2021/10/18 00:55:32;;;;;;;12.10;10.20;;;10.60;99.90;;;;;;5116419;28;20458;-70
2021/10/18 00:58:00;;;;;;;12.67;7.70;;;10.60;99.90;;;;;;5117257;28;20584;-71
2021/10/18 01:00:27;;;;;;;15.07;8.57;;;10.60;99.90;;;;;;5116520;28;20577;-70
2021/10/18 01:02:54;;;;;;;18.53;10.13;;;10.70;99.90;;;;;;5116773;27;20466;-70
2021/10/18 01:05:22;;;;;;;23.20;10.47;;;10.70;99.90;;;;;;5116387;28;20979;-70
2021/10/18 01:07:49;;;;;;;17.20;9.80;;;10.70;99.90;;;;;;5116004;28;20490;-70
2021/10/18 01:10:16;;;;;;;16.93;11.17;;;10.70;99.90;;;;;;5116427;28;20464;-69
2021/10/18 01:12:43;;;;;;;13.07;10.43;;;10.70;99.90;;;;;;5116263;28;20458;-70
2021/10/18 01:15:10;;;;;;;15.03;10.40;;;10.70;99.90;;;;;;5116412;28;20491;-70
2021/10/18 01:17:37;;;;;;;16.30;10.23;;;10.80;99.90;;;;;;5116497;28;20456;-70
2021/10/18 01:20:09;;;;;;;14.77;11.33;;;10.70;99.90;;;;;;5116015;28;20460;-70
2021/10/18 01:22:37;;;;;;;12.00;10.17;;;10.70;99.90;;;;;;5116463;28;20445;-70
2021/10/18 01:25:07;;;;;;;12.97;9.50;;;10.80;99.90;;;;;;5116390;28;20464;-70
2021/10/18 01:27:33;;;;;;;13.43;9.80;;;10.80;99.90;;;;;;5115971;28;20961;-70
2021/10/18 01:30:00;;;;;;;16.97;9.63;;;10.80;99.90;;;;;;5116262;28;20809;-70
2021/10/18 01:32:27;;;;;;;16.57;8.50;;;10.80;99.90;;;;;;5116131;28;20928;-70
2021/10/18 01:34:53;;;;;;;14.57;8.80;;;10.80;99.90;;;;;;5115696;28;20917;-70
2021/10/18 01:37:20;;;;;;;11.37;8.70;;;10.80;99.90;;;;;;5116027;28;20463;-69
2021/10/18 01:39:48;;;;;;;12.13;8.90;;;10.80;99.90;;;;;;5115847;28;20549;-69
2021/10/18 01:42:15;;;;;;;14.20;9.27;;;10.80;99.90;;;;;;5116101;28;20497;-74
2021/10/18 01:44:42;;;;;;;17.30;11.10;;;10.80;99.90;;;;;;5115696;28;20917;-70
2021/10/18 01:47:08;;;;;;;15.23;10.80;;;10.90;99.90;;;;;;5116438;28;20825;-70
2021/10/18 01:49:35;;;;;;;13.83;10.40;;;10.90;99.90;;;;;;5116027;28;20933;-69
2021/10/18 01:52:02;;;;;;;17.53;11.43;;;10.90;99.90;;;;;;5115703;28;20456;-69
2021/10/18 01:54:28;;;;;;;13.20;11.70;;;10.90;99.90;;;;;;5115679;28;20459;-69
2021/10/18 01:56:56;;;;;;;15.67;9.70;;;10.90;99.90;;;;;;5115765;28;20460;-69
2021/10/18 01:59:23;;;;;;;14.63;10.80;;;10.90;99.90;;;;;;5115541;28;20449;-69
2021/10/18 02:01:50;;;;;;;11.13;9.87;;;10.90;99.90;;;;;;5115215;28;20913;-69
2021/10/18 02:04:16;;;;;;;14.63;9.90;;;10.90;99.90;;;;;;5115605;28;20461;-70
2021/10/18 02:06:43;;;;;;;12.90;9.97;;;11.00;99.90;;;;;;5114404;28;20510;-69
2021/10/18 02:09:10;;;;;;;16.83;10.93;;;11.00;99.90;;;;;;5115204;28;20483;-69
2021/10/18 02:11:37;;;;;;;13.17;10.10;;;11.00;99.90;;;;;;5115385;28;20456;-69
2021/10/18 02:14:05;;;;;;;16.00;12.07;;;11.00;99.90;;;;;;5115271;28;20463;-70
2021/10/18 02:16:32;;;;;;;13.57;9.70;;;11.00;99.90;;;;;;5114864;28;20467;-70
2021/10/18 02:18:59;;;;;;;17.60;10.60;;;11.00;99.90;;;;;;5115455;28;20452;-69
2021/10/18 02:21:25;;;;;;;14.90;9.23;;;11.10;99.90;;;;;;5115334;28;20484;-70
2021/10/18 02:23:52;;;;;;;12.23;8.57;;;11.10;99.90;;;;;;5115288;28;20491;-70
2021/10/18 02:26:19;;;;;;;15.77;9.10;;;11.10;99.90;;;;;;5114828;28;20476;-70
2021/10/18 02:28:45;;;;;;;12.30;8.23;;;11.10;99.90;;;;;;5115559;28;20478;-70
2021/10/18 02:31:13;;;;;;;14.63;8.03;;;11.10;99.90;;;;;;5115388;28;20454;-70
2021/10/18 02:33:40;;;;;;;11.87;7.73;;;11.10;99.90;;;;;;5115104;28;20452;-70
2021/10/18 02:36:07;;;;;;;15.30;7.80;;;11.10;99.90;;;;;;5115180;28;20527;-70
2021/10/18 02:38:33;;;;;;;12.80;7.70;;;11.10;99.90;;;;;;5115234;28;20456;-70
2021/10/18 02:41:00;;;;;;;10.83;7.20;;;11.10;99.90;;;;;;5114918;28;20916;-70
2021/10/18 02:43:27;;;;;;;10.53;7.50;;;11.10;99.90;;;;;;5115093;28;20858;-70
2021/10/18 02:45:54;;;;;;;10.50;8.20;;;11.10;99.90;;;;;;5115145;28;20457;-70
2021/10/18 02:48:22;;;;;;;6.97;6.27;;;11.10;99.90;;;;;;5114855;28;21028;-68
2021/10/18 02:50:48;;;;;;;12.90;7.73;;;11.10;99.90;;;;;;5114882;28;20855;-69
2021/10/18 02:53:15;;;;;;;9.63;6.20;;;11.10;99.90;;;;;;5114771;28;20903;-70
2021/10/18 02:55:42;;;;;;;9.97;6.37;;;11.10;99.90;;;;;;5115001;28;20457;-69
2021/10/18 02:58:08;;;;;;;9.13;5.60;;;11.10;99.90;;;;;;5115026;28;20458;-69
2021/10/18 03:00:35;;;;;;;9.00;5.73;;;11.10;99.90;;;;;;5114912;28;20464;-68
2021/10/18 03:03:02;;;;;;;9.50;6.20;;;11.20;99.90;;;;;;5114742;28;20459;-69
2021/10/18 03:05:32;;;;;;;7.10;4.93;;;11.10;99.90;;;;;;5114927;28;20464;-69
2021/10/18 03:07:59;;;;;;;7.37;5.10;;;11.10;99.90;;;;;;5114384;28;20961;-70
2021/10/18 03:10:26;;;;;;;6.33;5.50;;;11.20;99.90;;;;;;5115042;28;20821;-70
2021/10/18 03:12:53;;;;;;;9.23;5.40;;;11.20;99.90;;;;;;5114251;28;20452;-69
2021/10/18 03:15:19;;;;;;;7.60;5.53;;;11.20;99.90;;;;;;5114946;28;20462;-70
2021/10/18 03:17:46;;;;;;;8.07;4.80;;;11.20;99.90;;;;;;5115792;28;20452;-68
2021/10/18 03:20:14;;;;;;;7.27;5.03;;;11.20;99.90;;;;;;5118806;28;20470;-69
2021/10/18 03:22:42;;;;;;;8.60;6.47;;;11.20;99.90;;;;;;5118779;28;20454;-68
2021/10/18 03:25:10;;;;;;;10.20;5.37;;;11.20;99.90;;;;;;5118631;28;20457;-68
2021/10/18 03:27:37;;;;;;;8.80;5.10;;;11.20;99.90;;;;;;5119366;28;20456;-70
2021/10/18 03:30:04;;;;;;;5.40;5.00;;;11.20;99.90;;;;;;5118273;28;20460;-70
2021/10/18 03:32:30;;;;;;;6.47;4.50;;;11.20;99.90;;;;;;5118471;28;20467;-68
2021/10/18 03:34:57;;;;;;;6.53;4.40;;;11.20;99.90;;;;;;5118298;28;20513;-69
2021/10/18 03:37:24;;;;;;;7.20;4.97;;;11.20;99.90;;;;;;5117911;28;20453;-68
2021/10/18 03:39:52;;;;;;;5.30;4.20;;;11.30;99.90;;;;;;5117911;28;20456;-68
2021/10/18 03:42:18;;;;;;;6.00;4.40;;;11.30;99.90;;;;;;5118247;28;20487;-69
2021/10/18 03:44:45;;;;;;;10.60;4.70;;;11.30;99.90;;;;;;5118390;28;20535;-70
2021/10/18 03:47:12;;;;;;;6.70;5.10;;;11.30;99.90;;;;;;5118153;28;20460;-69
2021/10/18 03:49:38;;;;;;;6.70;4.90;;;11.30;99.90;;;;;;5118053;28;20474;-68
2021/10/18 03:52:06;;;;;;;6.43;4.57;;;11.30;99.90;;;;;;5117978;28;20529;-68
2021/10/18 03:54:33;;;;;;;6.37;4.40;;;11.30;99.90;;;;;;5117957;28;20535;-68
2021/10/18 03:57:01;;;;;;;6.57;4.43;;;11.30;99.90;;;;;;5118257;28;20456;-68
2021/10/18 03:59:29;;;;;;;5.20;4.60;;;11.30;99.90;;;;;;5117707;28;20948;-69
2021/10/18 04:01:56;;;;;;;4.47;4.07;;;11.30;99.90;;;;;;5117629;27;20466;-69
2021/10/18 04:04:23;;;;;;;5.07;3.77;;;11.30;99.90;;;;;;5118063;28;20455;-71
2021/10/18 04:06:49;;;;;;;4.50;4.10;;;11.30;99.90;;;;;;5117754;27;20488;-68
2021/10/18 04:09:16;;;;;;;7.40;4.30;;;11.30;99.90;;;;;;5118159;28;20479;-69
2021/10/18 04:11:43;;;;;;;5.73;4.43;;;11.40;99.90;;;;;;5117560;28;20458;-70
2021/10/18 04:14:11;;;;;;;5.60;4.67;;;11.40;99.90;;;;;;5117971;28;20453;-68
2021/10/18 04:16:37;;;;;;;8.33;4.53;;;11.40;99.90;;;;;;5117360;28;20457;-69
2021/10/18 04:19:05;;;;;;;6.17;3.50;;;11.40;99.90;;;;;;5118372;28;20765;-69
2021/10/18 04:21:32;;;;;;;4.17;3.77;;;11.40;99.90;;;;;;5117478;28;20464;-70
2021/10/18 04:23:58;;;;;;;6.83;3.80;;;11.40;99.90;;;;;;5117338;28;20455;-69
2021/10/18 04:26:25;;;;;;;5.43;3.93;;;11.40;99.90;;;;;;5117521;28;20468;-69
2021/10/18 04:28:52;;;;;;;5.13;3.90;;;11.40;99.90;;;;;;5116884;28;20483;-69
2021/10/18 04:31:20;;;;;;;6.27;4.00;;;11.40;99.90;;;;;;5116306;28;20533;-69
2021/10/18 04:33:47;;;;;;;5.60;3.73;;;11.50;99.90;;;;;;5117015;28;20920;-69
2021/10/18 04:36:13;;;;;;;8.23;4.27;;;11.50;99.90;;;;;;5117125;28;20982;-70
2021/10/18 04:38:40;;;;;;;5.90;4.10;;;11.50;99.90;;;;;;5117315;28;20812;-68
2021/10/18 04:41:08;;;;;;;8.10;4.50;;;11.50;99.90;;;;;;5117747;28;20461;-68
2021/10/18 04:43:35;;;;;;;5.33;3.60;;;11.50;99.90;;;;;;5117086;28;20852;-68
2021/10/18 04:46:01;;;;;;;5.40;4.00;;;11.50;99.90;;;;;;5117020;28;20457;-69
2021/10/18 04:48:29;;;;;;;4.40;4.00;;;11.50;99.90;;;;;;5117024;27;20473;-69
2021/10/18 04:50:56;;;;;;;5.70;4.73;;;11.50;99.90;;;;;;5117062;27;20536;-69
2021/10/18 04:53:23;;;;;;;10.50;3.63;;;11.40;99.90;;;;;;5116694;28;20512;-69
2021/10/18 04:55:49;;;;;;;5.27;3.47;;;11.40;99.90;;;;;;5117276;28;20461;-69
2021/10/18 04:58:16;;;;;;;4.97;3.90;;;11.40;99.90;;;;;;5117041;28;20821;-69
2021/10/18 05:00:45;;;;;;;4.80;3.47;;;11.40;99.90;;;;;;5116828;28;20465;-69
2021/10/18 05:03:12;;;;;;;3.80;3.50;;;11.30;99.90;;;;;;5116466;28;20492;-69
2021/10/18 05:05:40;;;;;;;4.17;3.57;;;11.30;99.90;;;;;;5116719;28;20459;-69
2021/10/18 05:08:08;;;;;;;5.90;3.90;;;11.30;99.90;;;;;;5116405;27;20861;-69
2021/10/18 05:10:37;;;;;;;4.17;3.40;;;11.30;99.90;;;;;;5116636;28;20452;-69
2021/10/18 05:13:05;;;;;;;7.97;3.67;;;11.30;99.90;;;;;;5116425;28;20458;-69
2021/10/18 05:15:32;;;;;;;5.50;3.60;;;11.30;99.90;;;;;;5116229;28;20460;-69
2021/10/18 05:18:00;;;;;;;3.87;3.47;;;11.30;99.90;;;;;;5116537;28;20461;-69
2021/10/18 05:20:27;;;;;;;3.57;3.23;;;11.30;99.90;;;;;;5116327;28;20898;-70
2021/10/18 05:22:55;;;;;;;5.53;3.77;;;11.30;99.90;;;;;;5116106;27;20465;-69
2021/10/18 05:25:22;;;;;;;4.40;3.30;;;11.30;99.90;;;;;;5116356;28;20525;-69
2021/10/18 05:27:52;;;;;;;3.90;3.40;;;11.20;99.90;;;;;;5116590;28;20460;-69
2021/10/18 05:30:24;;;;;;;5.77;3.57;;;11.20;99.90;;;;;;5116252;28;20599;-71
2021/10/18 05:32:51;;;;;;;6.60;3.80;;;11.20;99.90;;;;;;5115957;28;20440;-69
2021/10/18 05:35:17;;;;;;;4.83;3.67;;;11.20;99.90;;;;;;5115614;28;20466;-69
2021/10/18 05:37:45;;;;;;;3.50;3.20;;;11.10;99.90;;;;;;5116039;28;20457;-69
2021/10/18 05:40:15;;;;;;;6.83;4.50;;;11.10;99.90;;;;;;5115638;27;20486;-70
2021/10/18 05:42:42;;;;;;;4.80;3.70;;;11.10;99.90;;;;;;5115850;28;20790;-70
2021/10/18 05:45:10;;;;;;;4.10;3.70;;;11.10;99.90;;;;;;5116099;28;20463;-70
2021/10/18 05:47:51;;;;;;;6.30;3.60;;;11.10;99.90;;;;;;5115977;28;20457;-70
2021/10/18 05:50:18;;;;;;;5.63;3.70;;;11.00;99.90;;;;;;5115812;28;20853;-71
2021/10/18 05:52:45;;;;;;;10.77;4.43;;;11.00;99.90;;;;;;5116047;28;20453;-69
2021/10/18 05:55:16;;;;;;;4.53;3.73;;;11.00;99.90;;;;;;5116172;28;20460;-69
2021/10/18 05:57:50;;;;;;;6.80;3.90;;;11.00;99.90;;;;;;5116287;28;20445;-69
2021/10/18 06:00:18;;;;;;;7.80;4.37;;;11.00;99.90;;;;;;5115992;28;20466;-69
2021/10/18 06:02:45;;;;;;;6.63;3.60;;;11.00;99.90;;;;;;5115974;27;20468;-70
2021/10/18 06:05:12;;;;;;;7.53;3.97;;;11.00;99.90;;;;;;5116425;28;20461;-71
2021/10/18 06:07:38;;;;;;;5.83;3.70;;;11.00;99.90;;;;;;5115580;28;20812;-69
2021/10/18 06:10:09;;;;;;;6.17;3.93;;;11.00;99.90;;;;;;5115614;28;20473;-69
2021/10/18 06:12:37;;;;;;;6.00;4.10;;;11.10;99.90;;;;;;5115967;28;20464;-69
2021/10/18 06:15:04;;;;;;;11.90;4.10;;;11.10;99.90;;;;;;5115336;28;20456;-69
2021/10/18 06:17:31;;;;;;;7.20;3.87;;;11.10;99.90;;;;;;5115217;28;20466;-68
2021/10/18 06:19:58;;;;;;;7.40;4.47;;;11.10;99.90;;;;;;5115647;28;20452;-69
2021/10/18 06:22:25;;;;;;;5.10;3.40;;;11.20;99.90;;;;;;5115799;28;20950;-70
2021/10/18 06:24:51;;;;;;;4.03;3.60;;;11.20;99.90;;;;;;5115005;28;20471;-70
2021/10/18 06:27:20;;;;;;;4.97;3.77;;;11.20;99.90;;;;;;5115331;28;20455;-70
2021/10/18 06:29:48;;;;;;;4.03;3.27;;;11.30;99.90;;;;;;5115454;28;20487;-70
2021/10/18 06:32:19;;;;;;;7.43;3.60;;;11.30;99.90;;;;;;5115532;28;20733;-70
2021/10/18 06:34:45;;;;;;;3.97;3.43;;;11.30;99.90;;;;;;5115640;28;20464;-70
2021/10/18 06:37:12;;;;;;;6.50;3.47;;;11.30;99.90;;;;;;5114987;28;20466;-70
2021/10/18 06:39:39;;;;;;;5.07;3.57;;;11.30;99.90;;;;;;5115713;28;20457;-70
2021/10/18 06:42:06;;;;;;;8.10;3.53;;;11.30;99.90;;;;;;5115292;28;20457;-73
2021/10/18 06:44:32;;;;;;;4.30;3.90;;;11.30;99.90;;;;;;5115342;28;20464;-70
2021/10/18 06:47:00;;;;;;;6.30;2.70;;;11.40;99.90;;;;;;5114622;28;20456;-70
2021/10/18 06:49:27;;;;;;;5.40;3.60;;;11.40;99.90;;;;;;5114786;28;20982;-70
2021/10/18 06:51:56;;;;;;;4.57;3.80;;;11.40;99.90;;;;;;5114508;28;21011;-70
2021/10/18 06:54:24;;;;;;;6.83;4.20;;;11.40;99.90;;;;;;5118011;28;20494;-70
2021/10/18 06:56:52;;;;;;;3.37;3.07;;;11.50;99.90;;;;;;5119008;28;20459;-70
2021/10/18 06:59:20;;;;;;;6.60;3.30;;;11.50;99.90;;;;;;5118892;28;20546;-70
2021/10/18 07:01:47;;;;;;;5.10;4.10;;;11.60;99.90;;;;;;5119138;28;20548;-70
2021/10/18 07:04:18;;;;;;;3.60;3.10;;;11.70;99.90;;;;;;5119047;28;20453;-70
2021/10/18 07:06:48;;;;;;;7.57;3.67;;;11.80;99.90;;;;;;5118636;27;20559;-70
2021/10/18 07:09:14;;;;;;;3.80;3.10;;;11.80;99.90;;;;;;5118793;28;20829;-70
2021/10/18 07:11:41;;;;;;;7.47;3.63;;;11.90;99.90;;;;;;5118626;28;20973;-70
2021/10/18 07:14:08;;;;;;;4.40;3.60;;;12.00;99.90;;;;;;5118654;28;20454;-70
2021/10/18 07:16:34;;;;;;;4.40;3.57;;;12.10;99.90;;;;;;5118324;28;20464;-70
2021/10/18 07:19:02;;;;;;;9.60;4.50;;;12.10;99.90;;;;;;5118591;28;20529;-70
2021/10/18 07:21:30;;;;;;;5.20;3.37;;;12.20;99.90;;;;;;5118538;28;20513;-70
2021/10/18 07:24:02;;;;;;;5.37;4.10;;;12.30;99.90;;;;;;5118163;28;20525;-70
2021/10/18 07:26:29;;;;;;;7.60;3.67;;;12.40;99.90;;;;;;5118144;28;20449;-70
2021/10/18 07:28:56;;;;;;;5.07;3.60;;;12.50;99.90;;;;;;5118052;27;20452;-70
2021/10/18 07:31:22;;;;;;;4.50;3.57;;;12.60;99.90;;;;;;5117843;28;20466;-70
2021/10/18 07:33:56;;;;;;;9.10;3.93;;;12.70;99.90;;;;;;5118320;27;20454;-70
2021/10/18 07:36:24;;;;;;;4.67;3.37;;;12.90;99.90;;;;;;5118471;28;20447;-70
2021/10/18 07:38:53;;;;;;;6.20;4.03;;;13.00;99.90;;;;;;5118243;28;20945;-70
2021/10/18 07:41:22;;;;;;;4.60;3.33;;;13.10;99.90;;;;;;5118655;28;20547;-70
2021/10/18 07:43:49;;;;;;;8.80;3.40;;;13.10;99.90;;;;;;5117941;28;20452;-70
2021/10/18 07:46:17;;;;;;;5.50;3.70;;;13.10;99.90;;;;;;5117923;28;20454;-70
2021/10/18 07:48:44;;;;;;;6.90;3.17;;;13.10;99.90;;;;;;5118034;28;20539;-70
2021/10/18 07:51:10;;;;;;;5.30;2.93;;;13.10;99.90;;;;;;5117973;28;20488;-70
2021/10/18 07:53:37;;;;;;;3.70;3.10;;;13.10;99.90;;;;;;5117527;27;20459;-70
2021/10/18 07:56:05;;;;;;;7.13;3.50;;;13.10;99.90;;;;;;5117544;28;20920;-70
2021/10/18 07:58:32;;;;;;;7.93;3.67;;;13.10;99.90;;;;;;5117669;28;20923;-70
2021/10/18 08:00:59;;;;;;;9.57;4.20;;;13.10;99.90;;;;;;5117667;28;20503;-70
2021/10/18 08:03:25;;;;;;;6.03;2.70;;;13.10;99.90;;;;;;5117593;28;20457;-70
2021/10/18 08:05:52;;;;;;;8.30;3.30;;;13.20;99.90;;;;;;5116284;28;20457;-70
2021/10/18 08:08:28;;;;;;;4.80;3.17;;;13.20;99.90;;;;;;5117460;28;20494;-69
2021/10/18 08:10:55;;;;;;;4.97;3.10;;;13.30;99.90;;;;;;5117508;28;20552;-69
2021/10/18 08:13:23;;;;;;;6.27;3.10;;;13.30;99.90;;;;;;5117499;28;20463;-70
2021/10/18 08:15:50;;;;;;;5.33;3.50;;;13.30;99.90;;;;;;5117809;28;20561;-70
2021/10/18 08:18:16;;;;;;;3.83;2.43;;;13.40;99.90;;;;;;5117169;28;20905;-70
2021/10/18 08:20:43;;;;;;;2.50;2.30;;;13.40;99.90;;;;;;5117568;28;20460;-70
2021/10/18 08:23:10;;;;;;;3.63;2.83;;;13.40;99.90;;;;;;5117307;28;20485;-70
2021/10/18 08:25:37;;;;;;;5.90;3.27;;;13.40;99.90;;;;;;5117120;28;20473;-70
2021/10/18 08:28:04;;;;;;;3.20;2.50;;;13.50;99.90;;;;;;5116900;28;20463;-70
2021/10/18 08:30:32;;;;;;;4.50;2.90;;;13.50;99.90;;;;;;5117655;28;20482;-71
2021/10/18 08:32:59;;;;;;;5.33;2.80;;;13.60;99.90;;;;;;5117427;28;20462;-70
2021/10/18 08:35:26;;;;;;;5.43;2.37;;;13.60;99.90;;;;;;5116809;28;20456;-70
2021/10/18 08:40:40;;;;;;;9.77;2.80;;;13.70;99.90;;;;;;5116601;28;20508;-70
2021/10/18 08:43:12;;;;;;;3.17;2.57;;;13.70;99.90;;;;;;5116530;28;20891;-70
2021/10/18 08:45:41;;;;;;;4.47;2.60;;;13.80;99.90;;;;;;5116648;28;20948;-72
2021/10/18 08:48:10;;;;;;;3.43;2.67;;;13.80;99.90;;;;;;5116885;28;20456;-71
2021/10/18 08:50:37;;;;;;;6.03;3.30;;;13.90;99.90;;;;;;5116828;28;20483;-71
2021/10/18 08:53:04;;;;;;;3.80;2.80;;;14.00;99.90;;;;;;5116789;28;20467;-70
2021/10/18 08:55:35;;;;;;;4.50;2.97;;;14.00;99.90;;;;;;5116924;28;20532;-70
2021/10/18 08:58:02;;;;;;;6.67;3.20;;;14.10;99.90;;;;;;5116335;27;20445;-71
2021/10/18 09:00:46;;;;;;;2.53;2.33;;;14.00;99.90;;;;;;5116920;28;20448;-71
2021/10/18 09:03:18;;;;;;;4.50;2.83;;;14.00;99.90;;;;;;5116651;28;20492;-70
2021/10/18 09:05:45;;;;;;;8.50;3.20;;;14.00;99.90;;;;;;5116523;28;20456;-70
2021/10/18 09:08:32;;;;;;;6.60;2.70;;;14.00;99.90;;;;;;5116256;28;20517;-70
2021/10/18 09:11:04;;;;;;;5.33;2.90;;;14.10;99.90;;;;;;5116585;28;20808;-70
2021/10/18 09:13:31;;;;;;;5.03;3.30;;;14.10;99.90;;;;;;5115851;28;20465;-70
2021/10/18 09:15:59;;;;;;;3.20;2.63;;;14.20;99.90;;;;;;5115973;28;20457;-70
2021/10/18 09:18:26;;;;;;;3.43;2.70;;;14.30;99.90;;;;;;5116992;28;20521;-69
2021/10/18 09:20:52;;;;;;;5.60;2.93;;;14.40;99.90;;;;;;5116255;28;20462;-70
2021/10/18 09:23:24;;;;;;;3.40;3.10;;;14.50;99.90;;;;;;5115867;28;20940;-69
2021/10/18 09:25:53;;;;;;;5.57;2.97;;;14.60;99.90;;;;;;5116214;28;20441;-69
2021/10/18 09:28:24;;;;;;;4.40;2.50;;;14.60;99.90;;;;;;5115855;28;20914;-70
2021/10/18 09:30:51;;;;;;;3.63;3.03;;;14.60;99.90;;;;;;5116033;28;20468;-70
2021/10/18 09:33:23;;;;;;;6.87;3.50;;;14.70;99.90;;;;;;5116428;28;20464;-70
2021/10/18 09:35:51;;;;;;;3.60;3.07;;;14.70;99.90;;;;;;5116322;28;20493;-71
2021/10/18 09:38:20;;;;;;;2.90;2.60;;;14.90;99.90;;;;;;5116368;28;20464;-70
2021/10/18 09:40:48;;;;;;;6.33;3.27;;;15.00;99.90;;;;;;5115957;28;20909;-70
2021/10/18 09:43:20;;;;;;;4.43;3.17;;;15.10;99.90;;;;;;5116007;28;20464;-71
2021/10/18 09:46:00;;;;;;;7.47;2.07;;;15.20;99.90;;;;;;5116663;28;20441;-71
2021/10/18 10:53:53;;;;;;;7.17;3.03;;;15.80;99.90;;;;;;5114477;28;20440;-72
2021/10/18 10:56:29;;;;;;;6.90;2.97;;;15.60;99.90;;;;;;5114950;28;20474;-71
2021/10/18 10:59:02;;;;;;;4.50;2.87;;;15.40;99.90;;;;;;5117253;28;20483;-70
2021/10/18 11:01:50;;;;;;;9.33;3.07;;;15.30;99.90;;;;;;5116679;28;20433;-71
2021/10/18 11:04:45;;;;;;;6.03;3.10;;;15.30;99.90;;;;;;5115623;28;20456;-69
2021/10/18 11:07:14;;;;;;;4.07;2.90;;;15.30;99.90;;;;;;5114925;28;20612;-70
2021/10/18 11:09:44;;;;;;;3.07;2.33;;;15.30;99.90;;;;;;5115010;28;20509;-70
2021/10/18 11:12:24;;;;;;;4.40;2.50;;;15.20;99.90;;;;;;5114482;28;20463;-71
2021/10/18 11:14:55;;;;;;;5.10;2.53;;;15.30;99.90;;;;;;5114247;28;20916;-70
2021/10/18 11:17:22;;;;;;;9.70;2.97;;;15.20;99.90;;;;;;5114881;28;20464;-71
2021/10/18 11:19:56;;;;;;;3.53;2.20;;;15.30;99.90;;;;;;5114284;28;20527;-70
2021/10/18 11:22:28;;;;;;;5.00;2.47;;;15.40;99.90;;;;;;5114537;28;20444;-70
2021/10/18 11:24:55;;;;;;;3.23;2.40;;;15.50;99.90;;;;;;5114519;28;20459;-72
2021/10/18 11:27:29;;;;;;;6.43;2.73;;;15.60;99.90;;;;;;5114326;28;20525;-70
2021/10/18 11:29:59;;;;;;;3.83;2.60;;;15.70;99.90;;;;;;5114508;28;20462;-70
2021/10/18 11:32:26;;;;;;;4.40;2.40;;;15.80;99.90;;;;;;5114685;28;20787;-70
2021/10/18 11:35:09;;;;;;;4.50;2.20;;;15.90;99.90;;;;;;5114579;28;20457;-71
2021/10/18 11:37:58;;;;;;;4.10;2.40;;;16.00;99.90;;;;;;5114048;28;20518;-71
2021/10/18 11:40:29;;;;;;;3.83;2.43;;;16.30;99.90;;;;;;5116846;28;20513;-71
2021/10/18 11:42:58;;;;;;;3.57;1.90;;;16.50;99.90;;;;;;5118085;28;20467;-70
2021/10/18 11:45:27;;;;;;;2.43;1.90;;;16.70;99.90;;;;;;5117614;28;20909;-70
2021/10/18 11:47:53;;;;;;;1.97;1.63;;;17.00;99.90;;;;;;5117956;27;20767;-71
2021/10/18 11:50:24;;;;;;;2.27;2.00;;;17.40;99.90;;;;;;5117702;28;20852;-70
2021/10/18 11:52:54;;;;;;;3.07;2.27;;;18.00;99.90;;;;;;5118242;28;20867;-71
2021/10/18 11:55:27;;;;;;;2.63;1.90;;;18.60;99.90;;;;;;5118196;28;20486;-70
2021/10/18 11:57:55;;;;;;;4.37;2.00;;;19.20;99.90;;;;;;5118047;28;20881;-70
2021/10/18 12:00:28;;;;;;;2.23;1.67;;;19.70;99.90;;;;;;5117793;28;20574;-71
2021/10/18 12:03:01;;;;;;;4.13;1.90;;;19.90;99.90;;;;;;5117906;28;20552;-71
2021/10/18 12:05:35;;;;;;;6.47;1.73;;;20.20;99.90;;;;;;5117817;28;20455;-71
2021/10/18 12:08:03;;;;;;;2.73;1.90;;;20.60;99.90;;;;;;5117632;27;20484;-71
2021/10/18 12:10:30;;;;;;;4.20;1.80;;;21.00;99.90;;;;;;5117511;28;20487;-71
2021/10/18 12:13:12;;;;;;;3.30;1.90;;;21.20;99.90;;;;;;5118208;28;20471;-71
2021/10/18 12:15:47;;;;;;;2.53;1.70;;;21.30;99.90;;;;;;5118121;28;20444;-71
2021/10/18 12:18:14;;;;;;;2.10;1.83;;;21.00;99.90;;;;;;5117782;28;20440;-71
2021/10/18 12:20:42;;;;;;;2.77;1.83;;;20.80;99.90;;;;;;5117268;28;20449;-70
2021/10/18 12:23:18;;;;;;;2.90;1.60;;;20.90;99.90;;;;;;5117530;27;20516;-71
2021/10/18 12:25:56;;;;;;;2.23;1.73;;;21.00;99.90;;;;;;5117956;28;20436;-70
2021/10/18 12:28:28;;;;;;;2.13;1.93;;;21.20;99.90;;;;;;5117536;28;20452;-70
2021/10/18 12:30:59;;;;;;;2.00;1.40;;;21.40;99.90;;;;;;5117104;28;20487;-70
2021/10/18 12:33:34;;;;;;;2.57;1.80;;;21.50;99.90;;;;;;5117783;28;20498;-70
2021/10/18 12:36:01;;;;;;;1.90;1.50;;;21.10;98.60;;;;;;5117067;28;20897;-71
2021/10/18 12:38:29;;;;;;;4.37;2.33;;;20.90;99.70;;;;;;5117231;27;20455;-70
2021/10/18 12:41:14;;;;;;;1.90;1.60;;;21.00;99.90;;;;;;5116537;28;20935;-70
2021/10/18 12:43:41;;;;;;;1.97;1.70;;;20.80;99.90;;;;;;5117517;28;20769;-70
2021/10/18 12:46:23;;;;;;;2.13;1.43;;;20.30;99.90;;;;;;5117145;28;20827;-71
2021/10/18 12:49:01;;;;;;;5.40;2.40;;;20.10;99.90;;;;;;5116464;28;20443;-70
2021/10/18 12:51:32;;;;;;;2.40;1.43;;;20.00;99.90;;;;;;5116324;28;20478;-71
2021/10/18 12:54:18;;;;;;;2.60;1.60;;;20.20;99.90;;;;;;5117068;28;20450;-71
2021/10/18 12:56:45;;;;;;;1.97;1.63;;;20.20;99.90;;;;;;5117261;28;20457;-71
2021/10/18 12:59:11;;;;;;;1.77;1.63;;;20.00;99.90;;;;;;5117126;28;20535;-71
2021/10/18 13:01:40;;;;;;;2.80;1.60;;;19.80;99.90;;;;;;5117113;27;20461;-70
2021/10/18 13:04:19;;;;;;;2.03;1.67;;;19.70;99.90;;;;;;5116537;28;20449;-70
2021/10/18 13:06:46;;;;;;;2.37;1.60;;;19.50;99.90;;;;;;5117870;28;20497;-72
2021/10/18 13:09:13;;;;;;;1.50;1.20;;;19.50;99.90;;;;;;5117726;28;20831;-71
2021/10/18 13:11:41;;;;;;;1.83;1.40;;;19.50;99.90;;;;;;5116555;28;20966;-70
2021/10/18 13:14:09;;;;;;;1.63;1.37;;;19.30;99.90;;;;;;5116894;28;20456;-72
2021/10/18 13:16:35;;;;;;;3.50;1.53;;;19.30;99.90;;;;;;5116535;28;20462;-70
2021/10/18 13:19:03;;;;;;;5.53;1.73;;;19.40;99.90;;;;;;5116718;28;20797;-71
2021/10/18 13:21:30;;;;;;;2.37;1.50;;;19.50;99.90;;;;;;5116908;28;20889;-70
2021/10/18 13:23:57;;;;;;;3.97;1.80;;;19.70;99.90;;;;;;5116165;28;20793;-70
2021/10/18 13:26:23;;;;;;;2.67;1.57;;;19.80;99.90;;;;;;5115799;28;20520;-70
2021/10/18 13:28:50;;;;;;;1.60;1.40;;;20.00;99.90;;;;;;5116200;28;20456;-70
2021/10/18 13:31:17;;;;;;;3.40;1.63;;;20.10;99.90;;;;;;5115907;28;20475;-71
2021/10/18 13:33:43;;;;;;;2.30;1.20;;;19.90;99.90;;;;;;5116033;28;20953;-71
2021/10/18 13:36:11;;;;;;;3.13;1.87;;;19.80;99.90;;;;;;5115827;28;20459;-71
2021/10/18 13:38:38;;;;;;;3.07;1.70;;;19.70;99.90;;;;;;5115912;28;20491;-71
2021/10/18 13:41:05;;;;;;;3.87;1.40;;;19.30;99.90;;;;;;5115234;28;20450;-71
2021/10/18 13:43:32;;;;;;;2.43;1.37;;;19.10;99.90;;;;;;5116092;27;20558;-70
2021/10/18 13:45:58;;;;;;;5.13;1.47;;;19.20;99.90;;;;;;5115812;28;20563;-70
2021/10/18 13:48:25;;;;;;;4.80;1.70;;;19.40;99.90;;;;;;5115490;28;20460;-70
2021/10/18 13:50:52;;;;;;;5.60;1.90;;;19.60;99.90;;;;;;5115471;28;20543;-70
2021/10/18 13:53:20;;;;;;;4.33;1.60;;;19.70;99.90;;;;;;5115877;28;20597;-69
2021/10/18 13:55:47;;;;;;;4.93;1.60;;;19.60;99.90;;;;;;5115951;28;20555;-72
2021/10/18 13:58:14;;;;;;;3.27;1.60;;;19.70;99.90;;;;;;5115184;28;20461;-72